Fort Madison Municipal Airport
Friday 10:35 PM
Weather N/A
Temperature 36°
Dew Point 19°
Feels Like 29°
Relative Humidity 51
%
Visibility 10
mi
Pressure 1013.9
mb
Wind Direction SSE
Wind Speed 8
mph
Last Hour Precip 0.00
"
KFSW 270435Z AUTO 15007KT 10SM 02/M07 A2994 RMK AO2

Recent Observations

Time Present Weather Temp DP Feels RH% Vsby Pressure Ceiling Direction Speed Gust 1h Precip
10:35PM 36° 19° 29° 51
%
10
mi
1013.9
mb
SSE 8
mph
0.00"
KFSW 270435Z AUTO 15007KT 10SM 02/M07 A2994 RMK AO2
10:15PM 36° 19° 29° 51
%
10
mi
1014.2
mb
SSE 8
mph
0.00"
KFSW 270415Z AUTO 15007KT 10SM 02/M07 A2995 RMK AO2
9:55PM 34° 19° 27° 55
%
10
mi
1014.2
mb
SSE 8
mph
0.00"
KFSW 270355Z AUTO 16007KT 10SM 01/M07 A2995 RMK AO2
9:35PM 34° 19° 28° 55
%
10
mi
1014.9
mb
SSE 7
mph
0.00"
KFSW 270335Z AUTO 16006KT 10SM 01/M07 A2997 RMK AO2
9:15PM 34° 19° 29° 55
%
10
mi
1014.9
mb
SSE 6
mph
0.00"
KFSW 270315Z AUTO 16005KT 10SM 01/M07 A2997 RMK AO2
8:55PM 34° 19° 29° 55
%
10
mi
1015.2
mb
SSE 6
mph
0.00"
KFSW 270255Z AUTO 16005KT 10SM 01/M07 A2998 RMK AO2
8:35PM 34° 19° 28° 55
%
10
mi
1014.9
mb
SSE 7
mph
0.00"
KFSW 270235Z AUTO 15006KT 10SM 01/M07 A2997 RMK AO2
8:15PM 34° 19° 30° 55
%
10
mi
1015.2
mb
SSE 5
mph
0.00"
KFSW 270215Z AUTO 15004KT 10SM 01/M07 A2998 RMK AO2
7:55PM 34° 19° 29° 55
%
10
mi
1015.2
mb
SSE 6
mph
0.00"
KFSW 270155Z AUTO 15005KT 10SM 01/M07 A2998 RMK AO2
7:35PM 34° 19° 28° 55
%
10
mi
1015.2
mb
SE 7
mph
0.00"
KFSW 270135Z AUTO 14006KT 10SM 01/M07 A2998 RMK AO2
7:15PM 34° 19° 28° 55
%
10
mi
1015.6
mb
SE 7
mph
0.00"
KFSW 270115Z AUTO 13006KT 10SM 01/M07 A2999 RMK AO2
6:55PM 34° 19° 29° 55
%
10
mi
1015.9
mb
SE 6
mph
0.00"
KFSW 270055Z AUTO 13005KT 10SM 01/M07 A3000 RMK AO2
6:35PM 34° 19° 29° 55
%
10
mi
1016.3
mb
SE 6
mph
0.00"
KFSW 270035Z AUTO 13005KT 10SM 01/M07 A3001 RMK AO2
6:15PM 34° 19° 29° 55
%
10
mi
1016.3
mb
SE 6
mph
0.00"
KFSW 270015Z AUTO 13005KT 10SM 01/M07 A3001 RMK AO2
5:55PM 34° 19° 29° 55
%
10
mi
1016.6
mb
ESE 6
mph
0.00"
KFSW 262355Z AUTO 12005KT 10SM 01/M07 A3002 RMK AO2
5:35PM 36° 18° 32° 48
%
10
mi
1016.3
mb
SE 5
mph
0.00"
KFSW 262335Z AUTO 13004KT 10SM 02/M08 A3001 RMK AO2
5:15PM 36° 18° 32° 48
%
10
mi
1016.6
mb
SE 5
mph
0.00"
KFSW 262315Z AUTO 13004KT 10SM 02/M08 A3002 RMK AO2
4:55PM 37° 16° 33° 41
%
10
mi
1016.6
mb
SSE 6
mph
0.00"
KFSW 262255Z AUTO 16005KT 10SM 03/M09 A3002 RMK AO2
4:35PM 37° 16° 34° 41
%
10
mi
1016.9
mb
S 5
mph
0.00"
KFSW 262235Z AUTO 17004KT 10SM 03/M09 A3003 RMK AO2
4:15PM 39° 16° 34° 38
%
10
mi
1016.9
mb
SSE 8
mph
0.00"
KFSW 262215Z AUTO 16007KT 10SM 04/M09 A3003 RMK AO2
Click here to show this page without METARs/TAFs included